Flight Track Log - Related Links

Times and Time Zones

All times are in EDT time to prevent confusion due to time zone crossing. See the SWA1044 flight status page for this flight to view local times or setup timezone preferences in your user account.

Time Position Orientation Groundspeed Altitude Reporting Facility
EDT Latitude Longitude Course Direction KTS MPH feet Rate Location/Type
Sat 18:10:04 41.9519 -72.7108 302° West 128 147 1,900  Level Boston Center
Sat 18:10:48 41.9789 -72.7472 315° West 163 188 3,500 2,712 Climbing Boston Center
Sat 18:11:48 42.0081 -72.8144 300° West 188 216 6,600 3,800 Climbing Boston Center
Sat 18:12:48 41.9869 -72.9008 252° West 199 229 11,100 3,300 Climbing Boston Center
Sat 18:13:48 41.9697 -72.9900 255° West 244 281 13,200 3,200 Climbing Boston Center
Sat 18:14:48 41.9483 -73.1128 257° West 292 336 17,500 3,300 Climbing Boston Center
Sat 18:15:48 41.9225 -73.2186 252° West 318 366 19,800 2,250 Climbing Boston Center
Sat 18:16:48 41.8925 -73.3297 250° West 325 374 22,000 2,200 Climbing Boston Center
Sat 18:17:48 41.8128 -73.4067 216° Southwest 330 380 24,200 2,600 Climbing Boston Center
Sat 18:18:48 41.7328 -73.4833 216° Southwest 342 394 27,200 3,450 Climbing Boston Center
Sat 18:19:48 41.6633 -73.5544 217° Southwest 334 384 31,100 3,300 Climbing Boston Center
Sat 18:20:48 41.6067 -73.6117 217° Southwest 299 344 33,800 857 Climbing Boston Center
Sat 18:23:11 41.4633 -73.7528 216° Southwest 278 320 34,000 59 Climbing New Center
Sat 18:24:12 41.3994 -73.8161 217° Southwest 291 335 34,000  Level New Center
Sat 18:25:12 41.3353 -73.8769 215° Southwest 291 335 34,000  Level New Center
Sat 18:26:10 41.2711 -73.9372 215° Southwest 291 335 34,000  Level New Center
Sat 18:27:11 41.2092 -74.0006 218° Southwest 291 335 34,000  Level New Center
Sat 18:28:11 41.1469 -74.0611 216° Southwest 296 341 34,000  Level New Center
Sat 18:29:12 41.0850 -74.1214 216° Southwest 289 333 34,000 -50 Level New Center
Sat 18:30:11 41.0186 -74.1811 214° Southwest 289 333 33,900 -600 Descending New Center
Sat 18:31:12 40.9522 -74.2411 214° Southwest 295 339 32,800 -992 Descending New Center
Sat 18:32:12 40.8878 -74.3064 217° Southwest 295 339 31,900 -966 Descending New Center
Sat 18:33:10 40.8236 -74.3689 216° Southwest 295 339 30,900 -1,017 Descending New Center
Sat 18:34:10 40.7628 -74.4450 223° Southwest 295 339 29,900 -992 Descending New Center
Sat 18:35:11 40.7122 -74.5328 233° Southwest 301 346 28,900 -950 Descending New Center
Sat 18:36:10 40.6550 -74.6225 230° Southwest 313 360 28,000 -454 Descending New Center
Sat 18:37:10 40.5978 -74.7178 232° Southwest 329 379 28,000 -149 Level New Center
Sat 18:38:11 40.5406 -74.8044 229° Southwest 329 379 27,700 -590 Descending New Center
Sat 18:39:12 40.4750 -74.8961 227° Southwest 339 390 26,800 -1,041 Descending New Center
Sat 18:40:12 40.4047 -74.9928 226° Southwest 351 404 25,600 -1,400 Descending New Center
Sat 18:41:12 40.3367 -75.0894 227° Southwest 358 412 24,000 -1,600 Descending New Center
Sat 18:42:12 40.2664 -75.1883 227° Southwest 363 418 22,400 -1,600 Descending New Center
Sat 18:43:12 40.2003 -75.2847 228° Southwest 363 418 20,800 -1,678 Descending New Center
Sat 18:44:10 40.1319 -75.3781 226° Southwest 363 418 19,100 -1,412 Descending New Center
Sat 18:45:11 40.0525 -75.4867 226° Southwest 368 423 18,000 -541 Descending New Center
Sat 18:46:12 39.9908 -75.5719 227° Southwest 362 417 18,000 -496 Level New Center
Sat 18:47:12 39.9197 -75.6753 228° Southwest 354 407 17,000 -966 Descending New Center
Sat 18:48:10 39.8722 -75.7639 235° Southwest 354 407 16,100 -640 Descending New Center
Sat 18:50:10 39.7667 -75.9667 236° Southwest 331 381 15,100 -1,333 Descending Potomac TRACON
Sat 18:51:10 39.7000 -76.0667 229° Southwest 332 382 12,100 -1,600 Descending Potomac TRACON
Sat 18:52:10 39.6333 -76.1500 224° Southwest 343 395 11,900 -700 Descending Potomac TRACON
Sat 18:53:10 39.5667 -76.2167 218° Southwest 294 338 10,700 -1,200 Descending Potomac TRACON
Sat 18:54:10 39.5167 -76.2833 226° Southwest 263 303 9,500 -1,150 Descending Potomac TRACON
Sat 18:55:10 39.4500 -76.3333 210° Southwest 258 297 8,400 -1,000 Descending Potomac TRACON
Sat 18:56:10 39.4000 -76.4000 226° Southwest 265 305 7,500 -1,200 Descending Potomac TRACON
Sat 18:57:10 39.3333 -76.4333 201° Southwest 274 315 6,000 -1,250 Descending Potomac TRACON
Sat 18:58:10 39.2667 -76.4000 159° South 271 312 5,000 -1,000 Descending Potomac TRACON
Sat 19:00:10 39.1167 -76.4167 185° South 261 300 3,000 -667 Descending Potomac TRACON
Sat 19:01:10 39.0833 -76.4667 229° Southwest 219 252 3,000 -50 Level Potomac TRACON
Sat 19:02:10 39.0667 -76.5333 252° West 204 235 2,900 -500 Descending Potomac TRACON
Sat 19:04:10 39.1167 -76.6167 308° West 128 147 1,500 -700 Descending Potomac TRACON
Sat 19:06:00 39.1667 -76.6667 270° West  Level FlightAware
Sat 19:13:00 39.1754 -76.6683 270° West  Level Estimated
Sat 19:14:00 39.1754 -76.6683 270° West  Level Estimated
Sat 19:15:00 39.1754 -76.6683 270° West  Level Estimated

Login

Don't have an account? Register now (free) for customized features, flight alerts, and more!